Accueil
METAR-TAF:

METAR-TAF

Aéroports :

Bâle-Mulhouse, France

Aéroport international de Bâle-Mulhouse-Fribourg

latitude: 47-36N, longitude: 007-31E, altitude: 270 m

Observation

Le bulletin a été fait il y a 29 minutes, à 22:30 UTC
Vent 5 kt de ouest/nord-ouest
Température 13°C
Humidité 77%
Pression 1025 hPa
Visibilité 10 km ou plus
pas de nuages en-dessous de 1500 mètres et pas de cumulonimbus.

METAR: LFSB 202230Z AUTO 29005KT CAVOK 13/09 Q1025 NOSIG

Heure: 00:59 (22:59 UTC)

Prévision

Le bulletin a été fait il y a 5 heures et 59 minutes, à 17:00 UTC
Prévision valable du 20 à 18 UTC au 21 à 18 UTC
Vent 7 kt de nord/nord-ouest
Visibilité 10 km ou plus
pas de nuages en-dessous de 1500 mètres et pas de cumulonimbus.
Temporairement
du 20 à 22 UTC au 21 à 08 UTC
Vent 3 kt de direction variable

TAF: LFSB 201700Z 2018/2118 34007KT CAVOK TEMPO 2022/2108 VRB03KT

Observations et prévisions météorologiques de plus de 4000 aéroports (messages METAR et TAF).

Les stations disponibles sont représentées par des disques jaunes et rouges sur la carte.

Passer la souris dessus pour voir le nom de la station.

Cliquer dessus pour voir les observations et prévisions météorologiques.

Pour changer de carte: cliquez sur les boutons verts avec une croix noire pour zoomer, sur le bouton vert avec un tiret pour effectuer un zoom arrière, ou sur les flèches vertes pour les cartes adjacentes.


METAR-TAF: